createdAt,value
2016-09-05T00:00:10.985Z,0
2016-09-05T00:00:56.085Z,0
2016-09-05T00:01:56.128Z,0
2016-09-05T00:03:56.163Z,0
2016-09-05T00:04:56.243Z,0
2016-09-05T00:06:56.228Z,0
2016-09-05T00:08:11.229Z,0
2016-09-05T00:08:56.301Z,0
2016-09-05T00:11:56.359Z,0
2016-09-05T00:12:57.116Z,0
2016-09-05T00:13:56.423Z,0
2016-09-05T00:15:56.469Z,0
2016-09-05T00:17:11.478Z,0
2016-09-05T00:17:57.264Z,0
2016-09-05T00:19:56.577Z,0
2016-09-05T00:20:56.594Z,0
2016-09-05T00:21:56.634Z,0
2016-09-05T00:22:56.654Z,0
2016-09-05T00:23:56.678Z,0
2016-09-05T00:24:56.679Z,0
2016-09-05T00:25:56.713Z,0
2016-09-05T00:26:56.733Z,0
2016-09-05T00:28:11.685Z,0
2016-09-05T00:28:57.475Z,0
2016-09-05T00:29:56.809Z,0
2016-09-05T00:30:56.853Z,0
2016-09-05T00:32:11.790Z,0
2016-09-05T00:33:56.941Z,0
2016-09-05T00:34:56.962Z,0
2016-09-05T00:35:57.002Z,0
2016-09-05T00:36:56.995Z,0
2016-09-05T00:38:11.944Z,0
2016-09-05T00:38:57.068Z,0
2016-09-05T00:40:57.102Z,0
2016-09-05T00:41:57.122Z,0
2016-09-05T00:43:12.058Z,0
2016-09-05T00:43:57.177Z,0
2016-09-05T00:44:57.216Z,0
2016-09-05T00:46:12.137Z,0
2016-09-05T00:46:57.240Z,0
2016-09-05T00:48:12.215Z,0
2016-09-05T00:48:57.290Z,0
2016-09-05T00:50:12.241Z,0
2016-09-05T00:50:57.362Z,0
2016-09-05T00:52:57.404Z,0
2016-09-05T00:53:57.474Z,0
2016-09-05T00:54:58.135Z,0
2016-09-05T00:55:57.494Z,0
2016-09-05T00:56:57.495Z,0
2016-09-05T00:58:57.550Z,0
2016-09-05T00:59:57.580Z,0
2016-09-05T01:00:57.626Z,0
2016-09-05T01:01:57.628Z,0
2016-09-05T01:02:57.670Z,0
2016-09-05T01:04:12.587Z,0
2016-09-05T01:05:12.649Z,0
2016-09-05T01:06:12.634Z,0
2016-09-05T01:06:57.773Z,0
2016-09-05T01:07:57.821Z,0
2016-09-05T01:08:58.505Z,0
2016-09-05T01:09:57.829Z,0
2016-09-05T01:10:57.872Z,0
2016-09-05T01:11:57.870Z,0
2016-09-05T01:12:57.906Z,0
2016-09-05T01:13:57.935Z,0
2016-09-05T01:14:57.966Z,0
2016-09-05T01:16:58.006Z,0
2016-09-05T01:17:58.039Z,0
2016-09-05T01:18:58.052Z,0
2016-09-05T01:20:58.108Z,0
2016-09-05T01:22:13.051Z,0
2016-09-05T01:22:58.151Z,0
2016-09-05T01:24:13.096Z,0
2016-09-05T01:24:58.195Z,0
2016-09-05T01:25:58.224Z,0
2016-09-05T01:26:58.250Z,0
2016-09-05T01:27:58.270Z,0
2016-09-05T01:28:58.295Z,0
2016-09-05T01:29:58.348Z,0
2016-09-05T01:30:58.364Z,0
2016-09-05T01:32:13.304Z,0
2016-09-05T01:32:58.417Z,0
2016-09-05T01:33:59.128Z,0
2016-09-05T01:35:13.366Z,0
2016-09-05T01:36:58.501Z,0
2016-09-05T01:37:58.521Z,0
2016-09-05T01:38:58.587Z,0
2016-09-05T01:39:58.582Z,0
2016-09-05T01:40:58.602Z,0
2016-09-05T01:42:13.559Z,0
2016-09-05T01:43:58.701Z,0
2016-09-05T01:44:58.704Z,0
2016-09-05T01:45:58.722Z,0
2016-09-05T01:46:58.743Z,0
2016-09-05T01:47:58.792Z,0
2016-09-05T01:48:58.811Z,0
2016-09-05T01:49:58.866Z,0
2016-09-05T01:50:58.881Z,0
2016-09-05T01:51:58.926Z,0
2016-09-05T01:52:58.903Z,0
2016-09-05T01:53:58.945Z,0
2016-09-05T01:54:58.964Z,0
2016-09-05T01:56:13.920Z,0
2016-09-05T01:57:59.029Z,0
2016-09-05T01:58:59.060Z,0
2016-09-05T01:59:59.077Z,0
2016-09-05T02:00:59.140Z,0
2016-09-05T02:02:14.054Z,0
2016-09-05T02:02:59.166Z,0
2016-09-05T02:03:59.183Z,0
2016-09-05T02:04:59.219Z,0
2016-09-05T02:05:59.239Z,0
2016-09-05T02:07:14.203Z,0
2016-09-05T02:07:59.303Z,0
2016-09-05T02:08:59.345Z,0
2016-09-05T02:09:59.328Z,0
2016-09-05T02:10:59.417Z,0
2016-09-05T02:11:59.395Z,0
2016-09-05T02:12:59.461Z,0
2016-09-05T02:13:59.449Z,0
2016-09-05T02:15:00.164Z,0
2016-09-05T02:16:14.428Z,0
2016-09-05T02:17:00.251Z,0
2016-09-05T02:18:59.554Z,0
2016-09-05T02:20:14.580Z,0
2016-09-05T02:20:59.648Z,0
2016-09-05T02:21:59.643Z,0
2016-09-05T02:23:14.586Z,0
2016-09-05T02:24:14.604Z,0
2016-09-05T02:26:14.656Z,0
2016-09-05T02:26:59.771Z,0
2016-09-05T02:27:59.796Z,0
2016-09-05T02:28:59.837Z,0
2016-09-05T02:29:59.843Z,0
2016-09-05T02:30:59.889Z,0
2016-09-05T02:32:14.870Z,0
2016-09-05T02:32:59.914Z,0
2016-09-05T02:33:59.927Z,0
2016-09-05T02:35:59.993Z,0
2016-09-05T02:37:14.933Z,0
2016-09-05T02:38:00.061Z,0
2016-09-05T02:39:14.980Z,0
2016-09-05T02:41:00.118Z,0
2016-09-05T02:42:00.143Z,0
2016-09-05T02:43:00.184Z,0
2016-09-05T02:45:00.230Z,0
2016-09-05T02:46:00.258Z,0
2016-09-05T02:47:00.300Z,0
2016-09-05T02:48:00.982Z,0
2016-09-05T02:49:00.318Z,0
2016-09-05T02:50:00.356Z,0
2016-09-05T02:52:00.427Z,0
2016-09-05T02:53:15.331Z,0
2016-09-05T02:54:00.455Z,0
2016-09-05T02:56:00.510Z,0
2016-09-05T02:57:00.522Z,0
2016-09-05T02:58:00.531Z,0
2016-09-05T02:59:00.568Z,0
2016-09-05T03:00:00.613Z,0
2016-09-05T03:01:15.538Z,0
2016-09-05T03:02:00.663Z,0
2016-09-05T03:03:00.691Z,0
2016-09-05T03:04:15.616Z,0
2016-09-05T03:05:00.718Z,0
2016-09-05T03:06:00.739Z,0
2016-09-05T03:07:01.466Z,0
2016-09-05T03:08:15.713Z,0
2016-09-05T03:09:00.836Z,0
2016-09-05T03:10:15.762Z,0
2016-09-05T03:11:00.873Z,0
2016-09-05T03:12:30.737Z,0
2016-09-05T03:13:00.923Z,0
2016-09-05T03:14:00.954Z,0
2016-09-05T03:15:00.980Z,0
2016-09-05T03:16:01.005Z,0
2016-09-05T03:17:01.005Z,0
2016-09-05T03:18:01.053Z,0
2016-09-05T03:19:15.990Z,0
2016-09-05T03:20:01.145Z,0
2016-09-05T03:21:01.120Z,0
2016-09-05T03:22:01.193Z,0
2016-09-05T03:23:01.168Z,0
2016-09-05T03:24:01.195Z,0
2016-09-05T03:25:16.844Z,0
2016-09-05T03:26:01.248Z,0
2016-09-05T03:27:01.279Z,0
2016-09-05T03:28:01.315Z,0
2016-09-05T03:29:01.317Z,0
2016-09-05T03:30:01.335Z,0
2016-09-05T03:31:16.305Z,0
2016-09-05T03:32:02.148Z,0
2016-09-05T03:33:01.450Z,0
2016-09-05T03:34:01.449Z,0
2016-09-05T03:35:01.476Z,0
2016-09-05T03:36:01.504Z,0
2016-09-05T03:37:01.531Z,0
2016-09-05T03:38:01.543Z,0
2016-09-05T03:39:01.597Z,0
2016-09-05T03:40:01.596Z,0
2016-09-05T03:41:01.633Z,0
2016-09-05T03:42:16.566Z,0
2016-09-05T03:43:01.680Z,0
2016-09-05T03:44:01.711Z,0
2016-09-05T03:45:01.728Z,0
2016-09-05T03:47:01.777Z,0
2016-09-05T03:48:01.812Z,0
2016-09-05T03:49:01.841Z,0
2016-09-05T03:50:16.794Z,0
2016-09-05T03:51:01.875Z,0
2016-09-05T03:52:01.895Z,0
2016-09-05T03:53:01.927Z,0
2016-09-05T03:54:01.947Z,0
2016-09-05T03:55:16.892Z,0
2016-09-05T03:56:02.005Z,0
2016-09-05T03:57:02.036Z,0
2016-09-05T03:58:16.984Z,0
2016-09-05T03:59:02.091Z,0
2016-09-05T04:00:02.799Z,0
2016-09-05T04:01:02.127Z,0
2016-09-05T04:02:02.141Z,0
2016-09-05T04:03:02.200Z,0
2016-09-05T04:04:02.198Z,0
2016-09-05T04:05:02.236Z,0
2016-09-05T04:06:02.243Z,0
2016-09-05T04:07:02.304Z,0
2016-09-05T04:08:02.320Z,0
2016-09-05T04:09:02.358Z,0
2016-09-05T04:10:17.267Z,0
2016-09-05T04:11:02.406Z,0
2016-09-05T04:12:02.416Z,0
2016-09-05T04:13:02.426Z,0
2016-09-05T04:14:17.399Z,0
2016-09-05T04:15:17.392Z,0
2016-09-05T04:19:02.585Z,0
2016-09-05T04:20:02.631Z,0
2016-09-05T04:21:02.649Z,0
2016-09-05T04:22:02.706Z,0
2016-09-05T04:23:02.733Z,0
2016-09-05T04:24:02.696Z,0
2016-09-05T04:25:02.729Z,0
2016-09-05T04:26:17.706Z,0
2016-09-05T04:27:02.808Z,0
2016-09-05T04:28:03.485Z,0
2016-09-05T04:29:02.843Z,0
2016-09-05T04:30:17.776Z,0
2016-09-05T04:31:02.882Z,0
2016-09-05T04:32:02.914Z,0
2016-09-05T04:33:17.854Z,0
2016-09-05T04:35:02.987Z,0
2016-09-05T04:36:03.021Z,0
2016-09-05T04:37:17.995Z,0
2016-09-05T04:38:03.051Z,0
2016-09-05T04:39:03.089Z,0
2016-09-05T04:40:03.105Z,0
2016-09-05T04:41:03.135Z,0
2016-09-05T04:42:03.151Z,0
2016-09-05T04:43:03.203Z,0
2016-09-05T04:44:03.234Z,0
2016-09-05T04:45:18.144Z,0
2016-09-05T04:46:18.191Z,0
2016-09-05T04:47:03.342Z,0
2016-09-05T04:48:03.300Z,0
2016-09-05T04:49:03.361Z,0
2016-09-05T04:50:03.359Z,0
2016-09-05T04:51:03.397Z,0
2016-09-05T04:52:03.415Z,0
2016-09-05T04:53:03.442Z,0
2016-09-05T04:54:03.465Z,0
2016-09-05T04:56:03.516Z,0
2016-09-05T04:57:03.533Z,5
2016-09-05T04:58:03.566Z,5
2016-09-05T04:59:03.611Z,5
2016-09-05T05:00:04.324Z,5
2016-09-05T05:01:03.632Z,5
2016-09-05T05:02:03.670Z,5
2016-09-05T05:03:03.682Z,5
2016-09-05T05:04:03.716Z,5
2016-09-05T05:05:18.655Z,5
2016-09-05T05:06:03.792Z,5
2016-09-05T05:07:03.785Z,5
2016-09-05T05:08:03.825Z,5
2016-09-05T05:09:03.838Z,5
2016-09-05T05:10:03.871Z,10
2016-09-05T05:11:03.887Z,10
2016-09-05T05:12:03.916Z,10
2016-09-05T05:13:03.932Z,15
2016-09-05T05:14:18.871Z,15
2016-09-05T05:15:18.906Z,20
2016-09-05T05:17:18.985Z,25
2016-09-05T05:18:04.051Z,25
2016-09-05T05:19:04.086Z,25
2016-09-05T05:20:04.109Z,25
2016-09-05T05:21:04.152Z,30
2016-09-05T05:22:04.158Z,25
2016-09-05T05:23:20.262Z,25
2016-09-05T05:24:04.286Z,25
2016-09-05T05:25:04.242Z,25
2016-09-05T05:26:04.260Z,25
2016-09-05T05:27:04.680Z,20
2016-09-05T05:28:04.335Z,20
2016-09-05T05:29:19.248Z,15
2016-09-05T05:30:05.067Z,15
2016-09-05T05:32:19.340Z,15
2016-09-05T05:33:19.352Z,15
2016-09-05T05:34:04.452Z,15
2016-09-05T05:35:04.569Z,15
2016-09-05T05:36:19.432Z,10
2016-09-05T05:37:19.473Z,10
2016-09-05T05:38:04.545Z,10
2016-09-05T05:39:04.599Z,10
2016-09-05T05:40:19.540Z,15
2016-09-05T05:41:04.664Z,15
2016-09-05T05:42:04.661Z,20
2016-09-05T05:43:04.692Z,15
2016-09-05T05:44:04.701Z,15
2016-09-05T05:45:19.671Z,15
2016-09-05T05:46:04.764Z,15
2016-09-05T05:47:04.832Z,15
2016-09-05T05:49:34.678Z,20
2016-09-05T05:50:04.919Z,15
2016-09-05T05:51:04.884Z,15
2016-09-05T05:52:04.912Z,10
2016-09-05T05:53:04.926Z,10
2016-09-05T05:54:04.953Z,10
2016-09-05T05:55:19.920Z,10
2016-09-05T05:56:05.006Z,10
2016-09-05T05:57:05.052Z,10
2016-09-05T05:58:19.977Z,10
2016-09-05T05:59:05.110Z,10
2016-09-05T06:00:05.111Z,15
2016-09-05T06:01:05.145Z,15
2016-09-05T06:02:05.162Z,15
2016-09-05T06:03:05.210Z,15
2016-09-05T06:04:05.219Z,15
2016-09-05T06:05:20.167Z,20
2016-09-05T06:07:05.280Z,30
2016-09-05T06:08:05.308Z,35
2016-09-05T06:09:05.354Z,40
2016-09-05T06:10:05.372Z,45
2016-09-05T06:11:05.467Z,50
2016-09-05T06:12:05.421Z,50
2016-09-05T06:13:05.453Z,50
2016-09-05T06:14:05.456Z,45
2016-09-05T06:15:05.503Z,40
2016-09-05T06:16:05.509Z,40
2016-09-05T06:18:05.558Z,40
2016-09-05T06:19:05.591Z,40
2016-09-05T06:20:20.542Z,35
2016-09-05T06:21:20.585Z,30
2016-09-05T06:22:05.694Z,25
2016-09-05T06:23:06.411Z,25
2016-09-05T06:24:05.738Z,20
2016-09-05T06:25:05.750Z,20
2016-09-05T06:26:05.792Z,25
2016-09-05T06:27:05.805Z,25
2016-09-05T06:28:05.923Z,25
2016-09-05T06:29:05.837Z,25
2016-09-05T06:30:05.860Z,30
2016-09-05T06:32:05.925Z,30
2016-09-05T06:33:05.935Z,35
2016-09-05T06:34:05.963Z,50
2016-09-05T06:35:05.998Z,50
2016-09-05T06:36:20.939Z,50
2016-09-05T06:37:06.065Z,50
2016-09-05T06:38:06.111Z,55
2016-09-05T06:39:21.005Z,45
2016-09-05T06:40:06.140Z,40
2016-09-05T06:41:06.138Z,40
2016-09-05T06:42:06.154Z,35
2016-09-05T06:43:06.183Z,35
2016-09-05T06:44:06.229Z,35
2016-09-05T06:45:06.243Z,35
2016-09-05T06:46:06.274Z,30
2016-09-05T06:47:06.314Z,30
2016-09-05T06:48:07.016Z,35
2016-09-05T06:49:06.385Z,35
2016-09-05T06:50:06.393Z,40
2016-09-05T06:51:06.451Z,45
2016-09-05T06:52:36.265Z,45
2016-09-05T06:53:21.368Z,45
2016-09-05T06:54:06.488Z,50
2016-09-05T06:55:07.545Z,45
2016-09-05T06:56:06.547Z,45
2016-09-05T06:57:06.541Z,40
2016-09-05T06:58:06.565Z,40
2016-09-05T06:59:06.637Z,40
2016-09-05T07:00:21.538Z,40
2016-09-05T07:01:06.652Z,40
2016-09-05T07:02:06.656Z,40
2016-09-05T07:03:21.625Z,35
2016-09-05T07:04:06.713Z,40
2016-09-05T07:05:06.751Z,40
2016-09-05T07:06:06.793Z,40
2016-09-05T07:07:06.807Z,40
2016-09-05T07:09:06.854Z,35
2016-09-05T07:10:06.892Z,30
2016-09-05T07:11:06.891Z,30
2016-09-05T07:12:06.923Z,40
2016-09-05T07:13:21.891Z,50
2016-09-05T07:14:06.989Z,55
2016-09-05T07:15:07.032Z,55
2016-09-05T07:16:07.027Z,55
2016-09-05T07:17:21.996Z,60
2016-09-05T07:18:07.082Z,65
2016-09-05T07:19:07.096Z,75
2016-09-05T07:20:22.046Z,70
2016-09-05T07:21:22.081Z,75
2016-09-05T07:22:22.094Z,85
2016-09-05T07:24:22.139Z,90
2016-09-05T07:25:07.250Z,95
2016-09-05T07:26:22.209Z,105
2016-09-05T07:27:22.227Z,115
2016-09-05T07:28:07.356Z,125
2016-09-05T07:29:07.347Z,135
2016-09-05T07:30:07.389Z,130
2016-09-05T07:31:07.407Z,150
2016-09-05T07:32:07.441Z,165
2016-09-05T07:33:07.458Z,195
2016-09-05T07:34:08.207Z,190
2016-09-05T07:35:07.516Z,170
2016-09-05T07:36:07.533Z,150
2016-09-05T07:37:07.560Z,135
2016-09-05T07:38:07.612Z,135
2016-09-05T07:39:22.599Z,155
2016-09-05T07:40:22.559Z,180
2016-09-05T07:41:07.669Z,185
2016-09-05T07:42:22.610Z,185
2016-09-05T07:43:08.407Z,200
2016-09-05T07:44:07.746Z,200
2016-09-05T07:45:07.774Z,205
2016-09-05T07:46:22.742Z,225
2016-09-05T07:47:07.833Z,240
2016-09-05T07:48:07.859Z,260
2016-09-05T07:49:07.878Z,520
2016-09-05T07:50:07.907Z,300
2016-09-05T07:51:07.925Z,290
2016-09-05T07:52:08.653Z,325
2016-09-05T07:53:07.999Z,315
2016-09-05T07:54:08.007Z,345
2016-09-05T07:55:22.952Z,280
2016-09-05T07:56:08.092Z,270
2016-09-05T07:57:22.992Z,220
2016-09-05T07:58:08.111Z,220
2016-09-05T07:59:08.134Z,230
2016-09-05T08:00:08.171Z,250
2016-09-05T08:01:08.177Z,250
2016-09-05T08:02:08.234Z,210
2016-09-05T08:03:08.256Z,180
2016-09-05T08:04:08.332Z,185
2016-09-05T08:05:23.207Z,190
2016-09-05T08:07:08.352Z,160
2016-09-05T08:08:08.376Z,180
2016-09-05T08:09:08.393Z,200
2016-09-05T08:10:23.344Z,140
2016-09-05T08:11:08.449Z,135
2016-09-05T08:12:08.488Z,145
2016-09-05T08:13:08.534Z,190
2016-09-05T08:14:08.546Z,205
2016-09-05T08:15:08.547Z,250
2016-09-05T08:16:08.596Z,125
2016-09-05T08:17:08.603Z,95
2016-09-05T08:18:08.648Z,95
2016-09-05T08:19:08.675Z,95
2016-09-05T08:20:08.701Z,125
2016-09-05T08:21:08.717Z,160
2016-09-05T08:22:08.748Z,185
2016-09-05T08:23:08.786Z,225
2016-09-05T08:24:08.812Z,225
2016-09-05T08:25:08.826Z,195
2016-09-05T08:26:08.855Z,195
2016-09-05T08:27:23.806Z,350
2016-09-05T08:28:23.835Z,230
2016-09-05T08:29:08.947Z,225
2016-09-05T08:30:08.976Z,230
2016-09-05T08:31:23.925Z,195
2016-09-05T08:32:09.011Z,195
2016-09-05T08:33:09.043Z,200
2016-09-05T08:34:24.012Z,225
2016-09-05T08:35:09.115Z,240
2016-09-05T08:36:09.157Z,190
2016-09-05T08:37:24.063Z,210
2016-09-05T08:38:09.904Z,270
2016-09-05T08:39:09.190Z,280
2016-09-05T08:40:09.241Z,235
2016-09-05T08:41:09.304Z,275
2016-09-05T08:42:24.215Z,295
2016-09-05T08:43:24.239Z,265
2016-09-05T08:44:09.339Z,435
2016-09-05T08:45:09.358Z,320
2016-09-05T08:46:09.386Z,280
2016-09-05T08:47:09.463Z,295
2016-09-05T08:48:09.455Z,460
2016-09-05T08:49:09.476Z,325
2016-09-05T08:50:09.506Z,720
2016-09-05T08:51:09.541Z,520
2016-09-05T08:52:09.582Z,465
2016-09-05T08:53:09.591Z,335
2016-09-05T08:54:09.630Z,265
2016-09-05T08:55:09.632Z,270
2016-09-05T08:56:09.667Z,285
2016-09-05T08:57:09.705Z,310
2016-09-05T08:58:09.730Z,475
2016-09-05T08:59:24.681Z,260
2016-09-05T09:00:09.772Z,235
2016-09-05T09:01:24.762Z,465
2016-09-05T09:02:09.843Z,575
2016-09-05T09:03:24.788Z,435
2016-09-05T09:04:24.817Z,210
2016-09-05T09:05:24.849Z,200
2016-09-05T09:06:10.033Z,200
2016-09-05T09:07:09.991Z,265
2016-09-05T09:08:10.010Z,255
2016-09-05T09:09:24.955Z,245
2016-09-05T09:10:10.069Z,320
2016-09-05T09:11:10.183Z,185
2016-09-05T09:12:10.134Z,180
2016-09-05T09:13:10.150Z,200
2016-09-05T09:14:10.173Z,180
2016-09-05T09:15:25.140Z,140
2016-09-05T09:17:10.297Z,110
2016-09-05T09:18:10.310Z,105
2016-09-05T09:19:10.324Z,95
2016-09-05T09:20:10.354Z,85
2016-09-05T09:21:10.414Z,95
2016-09-05T09:22:10.401Z,95
2016-09-05T09:23:10.455Z,85
2016-09-05T09:24:25.401Z,75
2016-09-05T09:25:10.494Z,75
2016-09-05T09:26:10.522Z,75
2016-09-05T09:27:10.550Z,70
2016-09-05T09:28:10.587Z,60
2016-09-05T09:29:10.646Z,60
2016-09-05T09:30:25.578Z,55
2016-09-05T09:31:11.366Z,50
2016-09-05T09:32:25.611Z,50
2016-09-05T09:33:10.722Z,55
2016-09-05T09:34:10.769Z,70
2016-09-05T09:35:10.764Z,85
2016-09-05T09:36:10.823Z,105
2016-09-05T09:37:10.842Z,110
2016-09-05T09:38:10.871Z,120
2016-09-05T09:39:10.875Z,120
2016-09-05T09:40:10.959Z,130
2016-09-05T09:41:10.931Z,125
2016-09-05T09:42:10.984Z,135
2016-09-05T09:43:25.907Z,155
2016-09-05T09:44:11.055Z,160
2016-09-05T09:45:25.968Z,165
2016-09-05T09:46:26.039Z,170
2016-09-05T09:47:26.072Z,155
2016-09-05T09:48:26.049Z,140
2016-09-05T09:49:26.092Z,120
2016-09-05T09:50:11.184Z,115
2016-09-05T09:51:11.198Z,120
2016-09-05T09:52:11.243Z,125
2016-09-05T09:53:11.284Z,120
2016-09-05T09:54:11.304Z,100
2016-09-05T09:55:11.302Z,90
2016-09-05T09:56:11.355Z,90
2016-09-05T09:57:11.367Z,80
2016-09-05T09:58:11.397Z,80
2016-09-05T09:59:26.337Z,65
2016-09-05T10:00:11.487Z,55
2016-09-05T10:01:11.471Z,50
2016-09-05T10:02:26.438Z,45
2016-09-05T10:03:11.533Z,50
2016-09-05T10:05:11.616Z,65
2016-09-05T10:06:11.622Z,80
2016-09-05T10:07:11.651Z,90
2016-09-05T10:08:11.689Z,105
2016-09-05T10:09:11.687Z,115
2016-09-05T10:10:12.455Z,130
2016-09-05T10:11:12.803Z,140
2016-09-05T10:12:26.690Z,170
2016-09-05T10:13:11.805Z,190
2016-09-05T10:14:11.839Z,215
2016-09-05T10:16:26.807Z,310
2016-09-05T10:17:11.952Z,290
2016-09-05T10:18:26.864Z,295
2016-09-05T10:19:11.961Z,305
2016-09-05T10:21:12.015Z,330
2016-09-05T10:22:12.058Z,320
2016-09-05T10:23:12.067Z,320
2016-09-05T10:24:12.839Z,415
2016-09-05T10:25:12.126Z,330
2016-09-05T10:26:12.148Z,275
2016-09-05T10:27:12.172Z,350
2016-09-05T10:28:27.127Z,305
2016-09-05T10:29:12.270Z,345
2016-09-05T10:30:27.197Z,290
2016-09-05T10:31:12.333Z,265
2016-09-05T10:32:12.330Z,305
2016-09-05T10:33:12.355Z,310
2016-09-05T10:34:42.219Z,265
2016-09-05T10:35:12.428Z,260
2016-09-05T10:36:12.445Z,240
2016-09-05T10:37:12.458Z,210
2016-09-05T10:38:12.483Z,190
2016-09-05T10:39:12.538Z,200
2016-09-05T10:40:12.531Z,200
2016-09-05T10:41:12.600Z,180
2016-09-05T10:42:27.532Z,195
2016-09-05T10:43:12.645Z,220
2016-09-05T10:44:12.658Z,235
2016-09-05T10:45:12.680Z,245
2016-09-05T10:46:27.641Z,235
2016-09-05T10:47:12.758Z,210
2016-09-05T10:48:27.698Z,190
2016-09-05T10:49:12.801Z,175
2016-09-05T10:51:27.763Z,155
2016-09-05T10:52:12.870Z,160
2016-09-05T10:53:27.835Z,155
2016-09-05T10:55:12.991Z,155
2016-09-05T10:56:12.991Z,150
2016-09-05T10:57:13.081Z,145
2016-09-05T10:58:13.044Z,145
2016-09-05T10:59:13.071Z,145
2016-09-05T11:00:13.103Z,145
2016-09-05T11:01:28.044Z,140
2016-09-05T11:02:28.075Z,150
2016-09-05T11:03:13.199Z,145
2016-09-05T11:04:13.220Z,145
2016-09-05T11:05:28.174Z,145
2016-09-05T11:06:13.272Z,145
2016-09-05T11:07:13.286Z,140
2016-09-05T11:08:13.316Z,140
2016-09-05T11:09:13.346Z,135
2016-09-05T11:10:28.338Z,125
2016-09-05T11:11:28.339Z,115
2016-09-05T11:12:13.481Z,115
2016-09-05T11:13:13.476Z,110
2016-09-05T11:14:13.524Z,120
2016-09-05T11:15:13.549Z,125
2016-09-05T11:16:13.537Z,135
2016-09-05T11:17:13.578Z,140
2016-09-05T11:18:28.532Z,150
2016-09-05T11:19:13.626Z,155
2016-09-05T11:21:13.762Z,190
2016-09-05T11:22:28.623Z,220
2016-09-05T11:23:13.742Z,220
2016-09-05T11:24:13.767Z,190
2016-09-05T11:25:13.806Z,250
2016-09-05T11:27:28.791Z,275
2016-09-05T11:28:13.888Z,255
2016-09-05T11:29:28.825Z,210
2016-09-05T11:30:13.960Z,200
2016-09-05T11:31:13.967Z,215
2016-09-05T11:32:14.005Z,190
2016-09-05T11:33:14.021Z,160
2016-09-05T11:34:28.975Z,150
2016-09-05T11:35:14.071Z,150
2016-09-05T11:36:14.104Z,150
2016-09-05T11:37:29.075Z,210
2016-09-05T11:39:14.191Z,215
2016-09-05T11:40:14.903Z,230
2016-09-05T11:41:14.270Z,225
2016-09-05T11:42:14.259Z,230
2016-09-05T11:43:14.320Z,235
2016-09-05T11:44:14.319Z,250
2016-09-05T11:45:14.357Z,215
2016-09-05T11:46:14.393Z,255
2016-09-05T11:48:29.357Z,265
2016-09-05T11:49:14.484Z,230
2016-09-05T11:50:29.410Z,270
2016-09-05T11:51:29.437Z,265
2016-09-05T11:52:15.248Z,235
2016-09-05T11:53:29.515Z,195
2016-09-05T11:54:14.636Z,235
2016-09-05T11:55:14.634Z,175
2016-09-05T11:56:14.667Z,195
2016-09-05T11:57:14.702Z,225
2016-09-05T11:58:14.774Z,205
2016-09-05T11:59:14.759Z,220
2016-09-05T12:00:16.499Z,210
2016-09-05T12:01:14.796Z,205
2016-09-05T12:02:14.838Z,200
2016-09-05T12:03:14.862Z,165
2016-09-05T12:04:14.902Z,165
2016-09-05T12:05:14.925Z,170
2016-09-05T12:06:14.952Z,145
2016-09-05T12:07:29.884Z,135
2016-09-05T12:08:14.999Z,130
2016-09-05T12:09:29.960Z,135
2016-09-05T12:10:15.069Z,135
2016-09-05T12:11:15.092Z,140
2016-09-05T12:12:15.144Z,140
2016-09-05T12:13:15.133Z,145
2016-09-05T12:14:15.178Z,150
2016-09-05T12:15:15.215Z,155
2016-09-05T12:16:15.239Z,180
2016-09-05T12:17:15.252Z,165
2016-09-05T12:18:30.205Z,165
2016-09-05T12:19:15.307Z,155
2016-09-05T12:20:15.329Z,155
2016-09-05T12:21:15.423Z,155
2016-09-05T12:22:15.403Z,190
2016-09-05T12:23:15.453Z,225
2016-09-05T12:24:15.463Z,165
2016-09-05T12:25:30.401Z,165
2016-09-05T12:26:30.440Z,180
2016-09-05T12:27:15.562Z,220
2016-09-05T12:28:15.572Z,175
2016-09-05T12:29:30.540Z,175
2016-09-05T12:30:15.612Z,170
2016-09-05T12:31:15.655Z,160
2016-09-05T12:32:15.662Z,150
2016-09-05T12:33:15.742Z,145
2016-09-05T12:34:15.744Z,140
2016-09-05T12:35:15.769Z,140
2016-09-05T12:36:30.725Z,150
2016-09-05T12:37:15.816Z,155
2016-09-05T12:38:15.851Z,165
2016-09-05T12:39:15.880Z,170
2016-09-05T12:40:30.843Z,175
2016-09-05T12:41:30.848Z,175
2016-09-05T12:42:15.964Z,180
2016-09-05T12:43:15.992Z,210
2016-09-05T12:44:16.006Z,175
2016-09-05T12:45:16.046Z,160
2016-09-05T12:46:16.086Z,155
2016-09-05T12:47:31.049Z,160
2016-09-05T12:48:16.119Z,190
2016-09-05T12:49:16.168Z,150
2016-09-05T12:50:31.115Z,150
2016-09-05T12:51:16.210Z,155
2016-09-05T12:52:31.169Z,140
2016-09-05T12:53:16.275Z,140
2016-09-05T12:54:16.299Z,130
2016-09-05T12:55:31.251Z,175
2016-09-05T12:56:16.362Z,170
2016-09-05T12:57:31.311Z,135
2016-09-05T12:58:16.409Z,170
2016-09-05T12:59:16.505Z,175
2016-09-05T13:00:16.450Z,185
2016-09-05T13:01:31.414Z,195
2016-09-05T13:02:16.509Z,185
2016-09-05T13:03:16.542Z,200
2016-09-05T13:05:31.550Z,180
2016-09-05T13:06:16.640Z,220
2016-09-05T13:07:16.652Z,215
2016-09-05T13:08:16.687Z,215
2016-09-05T13:09:16.705Z,225
2016-09-05T13:10:31.665Z,230
2016-09-05T13:13:16.847Z,185
2016-09-05T13:15:31.800Z,130
2016-09-05T13:16:16.939Z,155
2016-09-05T13:17:16.936Z,140
2016-09-05T13:18:16.981Z,200
2016-09-05T13:19:17.297Z,200
2016-09-05T13:20:17.030Z,200
2016-09-05T13:21:17.090Z,195
2016-09-05T13:22:17.084Z,125
2016-09-05T13:23:17.115Z,120
2016-09-05T13:24:17.156Z,135
2016-09-05T13:25:17.169Z,115
2016-09-05T13:26:17.212Z,175
2016-09-05T13:27:17.237Z,185
2016-09-05T13:28:32.177Z,180
2016-09-05T13:29:17.571Z,150
2016-09-05T13:30:17.319Z,115
2016-09-05T13:31:32.269Z,110
2016-09-05T13:32:32.292Z,110
2016-09-05T13:33:17.386Z,110
2016-09-05T13:34:17.426Z,110
2016-09-05T13:35:17.445Z,115
2016-09-05T13:36:17.497Z,120
2016-09-05T13:37:17.503Z,120
2016-09-05T13:38:17.563Z,200
2016-09-05T13:39:32.482Z,200
2016-09-05T13:40:17.603Z,205
2016-09-05T13:41:17.637Z,210
2016-09-05T13:42:32.559Z,205
2016-09-05T13:44:32.620Z,200
2016-09-05T13:45:17.752Z,210
2016-09-05T13:46:17.758Z,180
2016-09-05T13:47:17.779Z,175
2016-09-05T13:48:17.804Z,215
2016-09-05T13:49:17.856Z,220
2016-09-05T13:50:32.789Z,220
2016-09-05T13:51:17.930Z,220
2016-09-05T13:52:32.853Z,220
2016-09-05T13:53:32.877Z,205
2016-09-05T13:54:17.968Z,220
2016-09-05T13:55:18.041Z,175
2016-09-05T13:56:18.057Z,170
2016-09-05T13:57:47.917Z,175
2016-09-05T13:58:18.099Z,195
2016-09-05T13:59:18.130Z,190
2016-09-05T14:00:33.075Z,175
2016-09-05T14:02:18.197Z,165
2016-09-05T14:03:18.245Z,150
2016-09-05T14:04:18.275Z,145
2016-09-05T14:05:18.306Z,135
2016-09-05T14:06:18.310Z,125
2016-09-05T14:07:33.284Z,115
2016-09-05T14:08:18.382Z,105
2016-09-05T14:09:18.421Z,95
2016-09-05T14:10:18.445Z,85
2016-09-05T14:11:33.394Z,70
2016-09-05T14:12:18.515Z,65
2016-09-05T14:13:18.526Z,60
2016-09-05T14:14:18.544Z,50
2016-09-05T14:15:33.490Z,50
2016-09-05T14:16:33.525Z,50
2016-09-05T14:17:18.634Z,50
2016-09-05T14:18:18.662Z,55
2016-09-05T14:19:18.710Z,60
2016-09-05T14:20:18.721Z,65
2016-09-05T14:21:18.736Z,70
2016-09-05T14:22:33.712Z,80
2016-09-05T14:23:18.816Z,85
2016-09-05T14:24:19.236Z,90
2016-09-05T14:25:33.790Z,95
2016-09-05T14:26:18.925Z,100
2016-09-05T14:27:33.867Z,105
2016-09-05T14:28:18.975Z,105
2016-09-05T14:29:18.998Z,110
2016-09-05T14:31:33.967Z,115
2016-09-05T14:32:19.070Z,115
2016-09-05T14:33:19.119Z,120
2016-09-05T14:34:19.134Z,120
2016-09-05T14:37:19.216Z,120
2016-09-05T14:38:19.248Z,120
2016-09-05T14:40:19.305Z,115
2016-09-05T14:41:19.324Z,115
2016-09-05T14:42:19.356Z,110
2016-09-05T14:43:19.393Z,110
2016-09-05T14:44:19.424Z,110
2016-09-05T14:45:19.433Z,100
2016-09-05T14:46:19.459Z,100
2016-09-05T14:47:34.410Z,100
2016-09-05T14:48:19.536Z,95
2016-09-05T14:49:19.547Z,95
2016-09-05T14:50:19.595Z,85
2016-09-05T14:51:19.598Z,85
2016-09-05T14:52:19.647Z,80
2016-09-05T14:53:19.653Z,80
2016-09-05T14:55:34.642Z,85
2016-09-05T14:56:19.734Z,85
2016-09-05T14:57:19.783Z,85
2016-09-05T14:58:19.790Z,90
2016-09-05T14:59:34.759Z,90
2016-09-05T15:00:19.843Z,90
2016-09-05T15:01:19.882Z,95
2016-09-05T15:02:19.905Z,95
2016-09-05T15:03:34.856Z,95
2016-09-05T15:04:19.982Z,95
2016-09-05T15:05:19.990Z,95
2016-09-05T15:06:20.038Z,95
2016-09-05T15:07:20.061Z,95
2016-09-05T15:08:20.079Z,95
2016-09-05T15:09:20.109Z,95
2016-09-05T15:10:20.420Z,95